createdAt,value
2018-03-07T00:01:30.756Z,27.07
2018-03-07T00:03:58.320Z,27.33
2018-03-07T00:06:25.848Z,26.80
2018-03-07T00:08:53.401Z,27.70
2018-03-07T00:11:20.908Z,28.20
2018-03-07T00:13:48.421Z,26.47
2018-03-07T00:16:15.993Z,27.93
2018-03-07T00:18:44.272Z,29.80
2018-03-07T00:21:12.601Z,29.83
2018-03-07T00:23:40.138Z,31.60
2018-03-07T00:26:08.460Z,32.13
2018-03-07T00:28:36.005Z,34.17
2018-03-07T00:31:05.753Z,32.70
2018-03-07T00:33:33.313Z,31.13
2018-03-07T00:36:00.824Z,35.17
2018-03-07T00:38:28.360Z,33.03
2018-03-07T00:40:55.920Z,31.13
2018-03-07T00:43:23.486Z,29.53
2018-03-07T00:45:51.760Z,31.43
2018-03-07T00:48:20.036Z,31.90
2018-03-07T00:50:48.440Z,32.47
2018-03-07T00:53:16.712Z,33.97
2018-03-07T00:55:44.248Z,37.13
2018-03-07T00:58:11.785Z,34.53
2018-03-07T01:00:39.353Z,27.30
2018-03-07T01:03:07.660Z,29.63
2018-03-07T01:05:35.200Z,35.00
2018-03-07T01:08:03.498Z,35.40
2018-03-07T01:10:31.808Z,34.10
2018-03-07T01:12:59.367Z,33.60
2018-03-07T01:15:26.904Z,32.80
2018-03-07T01:17:54.468Z,33.33
2018-03-07T01:20:21.976Z,27.77
2018-03-07T01:22:49.520Z,32.57
2018-03-07T01:25:17.053Z,32.97
2018-03-07T01:27:44.564Z,36.57
2018-03-07T01:30:12.125Z,33.07
2018-03-07T01:32:39.636Z,34.57
2018-03-07T01:35:07.168Z,34.90
2018-03-07T01:37:34.689Z,34.80
2018-03-07T01:40:02.200Z,35.83
2018-03-07T01:42:29.731Z,32.60
2018-03-07T01:44:57.235Z,29.03
2018-03-07T01:47:24.767Z,29.07
2018-03-07T01:49:52.280Z,32.27
2018-03-07T01:52:19.816Z,35.63
2018-03-07T01:54:47.327Z,24.30
2018-03-07T01:57:14.939Z,25.20
2018-03-07T01:59:42.456Z,32.97
2018-03-07T02:02:09.999Z,32.13
2018-03-07T02:04:37.532Z,30.90
2018-03-07T02:07:05.840Z,35.17
2018-03-07T02:09:33.375Z,37.13
2018-03-07T02:12:00.887Z,38.00
2018-03-07T02:14:28.911Z,39.20
2018-03-07T02:16:56.452Z,39.57
2018-03-07T02:19:23.988Z,32.83
2018-03-07T02:21:52.292Z,34.27
2018-03-07T02:24:19.799Z,35.07
2018-03-07T02:26:47.368Z,37.03
2018-03-07T02:29:14.884Z,36.53
2018-03-07T02:31:43.212Z,36.17
2018-03-07T02:34:10.726Z,37.57
2018-03-07T02:36:38.239Z,35.23
2018-03-07T02:39:05.790Z,36.03
2018-03-07T02:41:34.176Z,35.13
2018-03-07T02:44:03.199Z,33.10
2018-03-07T02:46:30.708Z,34.53
2018-03-07T02:48:58.308Z,35.50
2018-03-07T02:51:25.820Z,31.70
2018-03-07T02:53:53.352Z,33.30
2018-03-07T02:56:20.895Z,30.87
2018-03-07T02:58:48.420Z,31.33
2018-03-07T03:01:15.957Z,31.70
2018-03-07T03:03:43.468Z,31.00
2018-03-07T03:06:11.009Z,31.40
2018-03-07T03:08:39.315Z,29.67
2018-03-07T03:11:06.856Z,30.43
2018-03-07T03:13:34.423Z,32.83
2018-03-07T03:16:01.933Z,31.43
2018-03-07T03:18:29.463Z,26.87
2018-03-07T03:20:56.972Z,27.37
2018-03-07T03:23:24.532Z,29.83
2018-03-07T03:25:52.807Z,29.83
2018-03-07T03:28:20.350Z,33.53
2018-03-07T03:30:47.929Z,32.87
2018-03-07T03:33:15.452Z,32.67
2018-03-07T03:35:42.994Z,32.80
2018-03-07T03:38:11.268Z,32.40
2018-03-07T03:40:38.799Z,23.40
2018-03-07T03:43:06.311Z,29.13
2018-03-07T03:45:33.848Z,33.10
2018-03-07T03:48:01.368Z,33.97
2018-03-07T03:50:29.697Z,32.93
2018-03-07T03:52:57.220Z,33.17
2018-03-07T03:55:25.496Z,33.23
2018-03-07T03:57:53.055Z,29.93
2018-03-07T04:00:20.597Z,28.50
2018-03-07T04:02:48.164Z,29.90
2018-03-07T04:05:15.672Z,32.53
2018-03-07T04:07:43.200Z,32.33
2018-03-07T04:10:10.736Z,34.47
2018-03-07T04:12:39.032Z,28.67
2018-03-07T04:15:07.307Z,32.47
2018-03-07T04:17:34.879Z,40.17
2018-03-07T04:20:03.184Z,37.50
2018-03-07T04:22:31.490Z,33.03
2018-03-07T04:24:59.020Z,41.70
2018-03-07T04:27:26.586Z,45.43
2018-03-07T04:29:54.120Z,43.63
2018-03-07T04:32:21.660Z,41.73
2018-03-07T04:34:49.219Z,44.77
2018-03-07T04:37:17.531Z,39.57
2018-03-07T04:39:45.063Z,41.93
2018-03-07T04:42:12.568Z,41.40
2018-03-07T04:44:40.795Z,40.13
2018-03-07T04:47:08.323Z,37.97
2018-03-07T04:49:35.932Z,36.33
2018-03-07T04:52:03.488Z,36.83
2018-03-07T04:54:31.048Z,36.50
2018-03-07T04:56:58.582Z,34.33
2018-03-07T04:59:26.087Z,34.63
2018-03-07T05:01:53.623Z,34.63
2018-03-07T05:04:21.900Z,32.77
2018-03-07T05:06:49.444Z,33.00
2018-03-07T05:09:17.016Z,32.73
2018-03-07T05:11:44.552Z,33.57
2018-03-07T05:14:12.132Z,33.17
2018-03-07T05:16:39.680Z,34.23
2018-03-07T05:19:08.008Z,34.20
2018-03-07T05:21:35.591Z,34.67
2018-03-07T05:24:03.219Z,34.90
2018-03-07T05:26:31.496Z,34.03
2018-03-07T05:28:59.808Z,33.57
2018-03-07T05:31:27.356Z,34.50
2018-03-07T05:33:55.632Z,34.57
2018-03-07T05:36:23.164Z,36.20
2018-03-07T05:38:50.676Z,35.20
2018-03-07T05:41:18.232Z,36.13
2018-03-07T05:43:45.768Z,37.63
2018-03-07T05:46:13.332Z,36.50
2018-03-07T05:48:40.848Z,37.80
2018-03-07T05:51:08.357Z,35.20
2018-03-07T05:53:35.929Z,37.67
2018-03-07T05:56:03.446Z,42.47
2018-03-07T05:58:31.012Z,45.10
2018-03-07T06:00:59.287Z,43.17
2018-03-07T06:03:26.819Z,45.30
2018-03-07T06:05:55.104Z,43.47
2018-03-07T06:08:23.405Z,44.33
2018-03-07T06:10:50.920Z,44.60
2018-03-07T06:13:18.460Z,43.07
2018-03-07T06:15:46.007Z,42.40
2018-03-07T06:18:14.280Z,42.53
2018-03-07T06:20:42.576Z,40.90
2018-03-07T06:23:10.852Z,40.53
2018-03-07T06:25:39.184Z,40.13
2018-03-07T06:28:06.695Z,38.63
2018-03-07T06:30:34.245Z,37.40
2018-03-07T06:33:01.820Z,39.17
2018-03-07T06:35:29.359Z,38.40
2018-03-07T06:37:56.928Z,37.37
2018-03-07T06:40:24.440Z,36.40
2018-03-07T06:42:51.980Z,37.50
2018-03-07T06:45:19.507Z,37.17
2018-03-07T06:47:47.432Z,36.10
2018-03-07T06:50:14.994Z,34.53
2018-03-07T06:52:42.975Z,34.07
2018-03-07T06:55:10.572Z,31.97
2018-03-07T06:57:38.079Z,31.50
2018-03-07T07:00:06.430Z,28.73
2018-03-07T07:02:33.999Z,28.10
2018-03-07T07:05:01.532Z,26.60
2018-03-07T07:07:29.091Z,27.20
2018-03-07T07:09:57.367Z,24.30
2018-03-07T07:12:24.956Z,24.17
2018-03-07T07:14:53.267Z,25.13
2018-03-07T07:17:20.795Z,24.83
2018-03-07T07:19:48.334Z,24.93
2018-03-07T07:22:15.868Z,23.77
2018-03-07T08:41:13.052Z,15.00
2018-03-07T08:43:40.624Z,15.03
2018-03-07T08:46:08.168Z,15.07
2018-03-07T08:48:36.504Z,14.63
2018-03-07T08:51:04.029Z,15.07
2018-03-07T08:53:31.568Z,15.40
2018-03-07T08:55:59.112Z,14.87
2018-03-07T08:58:26.658Z,15.67
2018-03-07T09:00:54.945Z,34.70
2018-03-07T09:03:24.220Z,16.70
2018-03-07T09:05:51.784Z,15.67
2018-03-07T09:08:19.319Z,15.30
2018-03-07T09:10:46.902Z,17.37
2018-03-07T09:13:14.777Z,16.50
2018-03-07T09:15:42.313Z,24.43
2018-03-07T09:18:10.627Z,27.30
2018-03-07T09:20:38.148Z,15.80
2018-03-07T09:23:05.694Z,15.60
2018-03-07T09:25:33.237Z,58.07
2018-03-07T09:28:00.801Z,25.50
2018-03-07T09:30:28.337Z,23.70
2018-03-07T09:32:55.917Z,16.87
2018-03-07T09:35:23.670Z,17.33
2018-03-07T09:37:51.181Z,17.00
2018-03-07T09:40:19.480Z,16.53
2018-03-07T09:42:47.024Z,16.50
2018-03-07T09:45:14.585Z,16.20
2018-03-07T09:47:42.156Z,16.00
2018-03-07T09:50:09.744Z,16.13
2018-03-07T09:52:38.057Z,16.03
2018-03-07T09:55:05.571Z,15.30
2018-03-07T09:57:33.136Z,15.77
2018-03-07T10:00:01.416Z,16.13
2018-03-07T10:02:29.335Z,16.10
2018-03-07T10:04:56.937Z,16.33
2018-03-07T10:07:24.528Z,15.70
2018-03-07T10:09:52.068Z,16.90
2018-03-07T10:12:20.349Z,15.40
2018-03-07T10:14:48.644Z,16.73
2018-03-07T10:17:16.932Z,16.30
2018-03-07T10:19:45.260Z,16.63
2018-03-07T10:22:12.776Z,16.10
2018-03-07T10:24:41.084Z,16.97
2018-03-07T10:27:09.484Z,14.97
2018-03-07T10:29:37.000Z,15.40
2018-03-07T10:32:04.536Z,17.97
2018-03-07T10:34:32.508Z,21.00
2018-03-07T10:37:00.048Z,17.57
2018-03-07T10:39:28.333Z,16.80
2018-03-07T10:41:56.640Z,17.53
2018-03-07T10:44:24.927Z,18.40
2018-03-07T10:46:53.200Z,19.00
2018-03-07T10:49:20.735Z,18.60
2018-03-07T10:51:48.251Z,19.07
2018-03-07T10:54:17.290Z,19.20
2018-03-07T10:56:44.800Z,20.27
2018-03-07T10:59:12.340Z,21.90
2018-03-07T11:01:39.848Z,28.53
2018-03-07T11:04:07.366Z,21.83
2018-03-07T11:06:34.895Z,21.87
2018-03-07T11:09:02.413Z,45.37
2018-03-07T11:11:29.944Z,22.40
2018-03-07T11:13:58.243Z,22.23
2018-03-07T11:16:25.805Z,156.77
2018-03-07T11:18:54.085Z,25.70
2018-03-07T11:21:21.600Z,26.27
2018-03-07T11:23:49.145Z,31.37
2018-03-07T11:26:17.433Z,23.67
2018-03-07T11:28:44.976Z,21.07
2018-03-07T11:31:12.489Z,19.37
2018-03-07T11:33:40.056Z,16.97
2018-03-07T11:36:07.573Z,17.63
2018-03-07T11:38:35.159Z,16.90
2018-03-07T11:41:03.482Z,18.13
2018-03-07T11:43:31.013Z,17.93
2018-03-07T11:46:05.137Z,17.60
2018-03-07T11:48:32.653Z,16.70
2018-03-07T11:51:01.261Z,14.67
2018-03-07T11:53:29.542Z,16.37
2018-03-07T11:55:57.838Z,16.10
2018-03-07T11:58:26.138Z,15.73
2018-03-07T12:00:53.657Z,15.60
2018-03-07T12:03:21.197Z,15.27
2018-03-07T12:05:48.708Z,15.07
2018-03-07T12:08:16.252Z,14.00
2018-03-07T12:10:43.762Z,14.57
2018-03-07T12:13:11.292Z,14.60
2018-03-07T12:15:38.821Z,15.33
2018-03-07T12:18:07.101Z,16.07
2018-03-07T12:20:36.008Z,16.60
2018-03-07T12:23:03.520Z,15.37
2018-03-07T12:25:31.312Z,17.40
2018-03-07T12:27:58.826Z,16.43
2018-03-07T12:30:27.099Z,16.93
2018-03-07T12:32:54.661Z,17.40
2018-03-07T12:35:22.160Z,16.40
2018-03-07T12:37:49.709Z,16.93
2018-03-07T12:40:17.227Z,16.00
2018-03-07T12:42:45.094Z,16.37
2018-03-07T12:45:12.608Z,15.43
2018-03-07T12:47:40.149Z,26.50
2018-03-07T12:50:07.687Z,37.03
2018-03-07T12:52:35.964Z,13.93
2018-03-07T12:55:04.264Z,20.37
2018-03-07T12:57:32.545Z,12.83
2018-03-07T13:00:00.844Z,13.33
2018-03-07T13:02:28.356Z,11.57
2018-03-07T13:04:55.870Z,13.17
2018-03-07T13:07:24.212Z,11.73
2018-03-07T13:09:51.725Z,12.13
2018-03-07T13:12:19.253Z,11.30
2018-03-07T13:14:46.768Z,10.97
2018-03-07T13:17:14.345Z,10.53
2018-03-07T13:19:42.621Z,10.23
2018-03-07T13:22:10.137Z,9.33
2018-03-07T13:24:37.673Z,10.27
2018-03-07T13:27:05.952Z,10.10
2018-03-07T13:29:34.261Z,9.20
2018-03-07T13:32:01.779Z,9.48
2018-03-07T13:34:29.329Z,7.67
2018-03-07T13:36:56.837Z,7.30
2018-03-07T13:39:24.352Z,7.43
2018-03-07T13:41:51.904Z,6.60
2018-03-07T13:44:20.173Z,6.40
2018-03-07T13:46:47.696Z,5.77
2018-03-07T13:49:15.196Z,6.30
2018-03-07T13:51:42.720Z,6.63
2018-03-07T13:54:10.241Z,6.10
2018-03-07T13:56:37.748Z,5.60
2018-03-07T13:59:06.044Z,6.30
2018-03-07T14:01:33.545Z,6.03
2018-03-07T14:04:01.524Z,6.07
2018-03-07T14:06:29.036Z,5.80
2018-03-07T14:08:56.573Z,6.17
2018-03-07T14:11:24.076Z,5.70
2018-03-07T14:13:51.580Z,5.50
2018-03-07T14:16:19.112Z,5.60
2018-03-07T14:18:46.616Z,5.30
2018-03-07T14:21:14.140Z,5.13
2018-03-07T14:23:41.640Z,4.60
2018-03-07T14:26:10.201Z,4.50
2018-03-07T14:28:37.712Z,4.30
2018-03-07T14:31:05.220Z,4.67
2018-03-07T14:33:32.743Z,4.50
2018-03-07T14:36:01.016Z,4.50
2018-03-07T14:38:28.543Z,4.93
2018-03-07T14:40:56.040Z,4.27
2018-03-07T14:43:23.568Z,4.80
2018-03-07T14:45:51.076Z,5.00
2018-03-07T14:48:19.241Z,4.20
2018-03-07T14:50:46.776Z,4.20
2018-03-07T14:53:15.048Z,4.50
2018-03-07T14:55:42.575Z,4.27
2018-03-07T14:58:10.084Z,3.60
2018-03-07T15:00:37.886Z,4.50
2018-03-07T15:03:05.399Z,4.10
2018-03-07T15:05:32.905Z,4.20
2018-03-07T15:08:00.436Z,4.10
2018-03-07T15:10:27.940Z,3.83
2018-03-07T15:12:55.468Z,3.90
2018-03-07T15:15:22.976Z,3.83
2018-03-07T15:17:50.508Z,4.07
2018-03-07T15:20:18.012Z,3.83
2018-03-07T15:22:45.523Z,3.77
2018-03-07T15:25:13.052Z,3.60
2018-03-07T15:27:40.556Z,4.03
2018-03-07T15:30:08.851Z,3.60
2018-03-07T15:32:36.355Z,3.50
2018-03-07T15:35:03.913Z,3.23
2018-03-07T15:37:31.408Z,3.30
2018-03-07T15:39:58.946Z,3.03
2018-03-07T15:42:26.473Z,3.17
2018-03-07T15:44:53.985Z,3.37
2018-03-07T15:47:21.508Z,3.13
2018-03-07T15:49:49.013Z,2.90
2018-03-07T15:52:16.572Z,2.90
2018-03-07T15:54:44.123Z,3.17
2018-03-07T15:57:11.696Z,3.17
2018-03-07T15:59:39.301Z,3.03
2018-03-07T16:02:06.829Z,2.90
2018-03-07T16:04:34.360Z,2.67
2018-03-07T16:07:01.860Z,2.57
2018-03-07T16:09:30.161Z,3.00
2018-03-07T16:11:57.700Z,2.93
2018-03-07T16:14:25.204Z,3.00
2018-03-07T16:16:52.752Z,2.40
2018-03-07T16:19:21.033Z,3.00
2018-03-07T16:21:48.541Z,2.83
2018-03-07T16:24:16.063Z,2.50
2018-03-07T16:26:43.559Z,2.50
2018-03-07T16:29:11.883Z,2.40
2018-03-07T16:31:39.384Z,2.77
2018-03-07T16:34:06.947Z,3.00
2018-03-07T16:36:34.436Z,3.40
2018-03-07T16:39:01.940Z,3.20
2018-03-07T16:41:29.833Z,3.07
2018-03-07T16:43:57.371Z,3.13
2018-03-07T16:46:25.648Z,2.70
2018-03-07T16:48:53.175Z,2.63
2018-03-07T16:51:20.700Z,2.30
2018-03-07T16:53:49.318Z,2.60
2018-03-07T16:56:16.864Z,2.70
2018-03-07T16:58:44.355Z,2.60
2018-03-07T17:01:11.889Z,2.57
2018-03-07T17:03:40.172Z,2.70
2018-03-07T17:06:07.992Z,2.80
2018-03-07T17:08:35.507Z,2.83
2018-03-07T17:11:03.048Z,2.73
2018-03-07T17:13:30.556Z,3.07
2018-03-07T17:15:58.068Z,2.87
2018-03-07T17:18:26.371Z,3.20
2018-03-07T17:20:53.876Z,3.10
2018-03-07T17:23:21.376Z,3.07
2018-03-07T17:25:49.673Z,3.30
2018-03-07T17:28:17.945Z,3.10
2018-03-07T17:30:45.475Z,3.07
2018-03-07T17:33:12.976Z,3.40
2018-03-07T17:35:40.476Z,3.20
2018-03-07T17:38:08.777Z,3.80
2018-03-07T17:40:36.284Z,4.20
2018-03-07T17:43:03.789Z,3.90
2018-03-07T17:45:31.322Z,4.20
2018-03-07T17:47:59.496Z,4.67
2018-03-07T17:50:27.003Z,4.40
2018-03-07T17:52:54.572Z,4.00
2018-03-07T17:55:22.076Z,3.97
2018-03-07T17:57:49.612Z,4.73
2018-03-07T18:00:17.120Z,3.53
2018-03-07T18:02:44.624Z,3.23
2018-03-07T18:05:12.168Z,4.60
2018-03-07T18:07:39.676Z,4.67
2018-03-07T18:10:07.210Z,5.13
2018-03-07T18:12:36.253Z,8.17
2018-03-07T18:15:04.553Z,8.33
2018-03-07T18:17:32.107Z,8.63
2018-03-07T18:19:59.611Z,8.80
2018-03-07T18:22:27.144Z,9.43
2018-03-07T18:24:54.652Z,9.87
2018-03-07T18:27:22.155Z,8.27
2018-03-07T18:29:49.689Z,9.67
2018-03-07T18:32:17.197Z,9.17
2018-03-07T18:34:44.731Z,9.60
2018-03-07T18:37:12.240Z,8.87
2018-03-07T18:39:39.767Z,10.30
2018-03-07T18:42:07.291Z,9.63
2018-03-07T18:44:34.808Z,8.23
2018-03-07T18:47:02.352Z,8.50
2018-03-07T18:49:30.917Z,8.13
2018-03-07T18:52:00.130Z,8.57
2018-03-07T18:54:27.668Z,8.33
2018-03-07T18:56:55.944Z,8.17
2018-03-07T18:59:23.492Z,8.03
2018-03-07T19:01:51.012Z,9.53
2018-03-07T19:04:19.276Z,8.63
2018-03-07T19:06:46.808Z,9.87
2018-03-07T19:09:14.319Z,9.77
2018-03-07T19:11:41.858Z,8.47
2018-03-07T19:14:09.360Z,9.60
2018-03-07T19:16:36.879Z,8.80
2018-03-07T19:19:04.405Z,8.60
2018-03-07T19:21:32.676Z,8.90
2018-03-07T19:24:00.257Z,7.57
2018-03-07T19:26:27.736Z,7.97
2018-03-07T19:28:56.006Z,8.37
2018-03-07T19:31:23.528Z,7.93
2018-03-07T19:33:51.036Z,9.10
2018-03-07T19:36:18.563Z,8.20
2018-03-07T19:38:46.075Z,9.27
2018-03-07T19:41:13.584Z,9.83
2018-03-07T19:43:41.880Z,10.57
2018-03-07T19:46:09.404Z,11.37
2018-03-07T19:48:36.940Z,10.53
2018-03-07T19:51:04.508Z,11.03
2018-03-07T19:53:32.020Z,12.67
2018-03-07T19:55:59.553Z,11.40
2018-03-07T19:58:27.060Z,11.97
2018-03-07T20:00:54.852Z,12.90
2018-03-07T20:03:22.363Z,12.37
2018-03-07T20:05:49.872Z,12.97
2018-03-07T20:08:18.172Z,13.53
2018-03-07T20:10:45.684Z,13.23
2018-03-07T20:13:13.218Z,14.17
2018-03-07T20:15:41.195Z,12.87
2018-03-07T20:18:08.712Z,13.37
2018-03-07T20:20:36.245Z,14.10
2018-03-07T20:23:03.756Z,13.30
2018-03-07T20:25:31.288Z,14.87
2018-03-07T20:27:59.589Z,14.07
2018-03-07T20:30:27.878Z,15.27
2018-03-07T20:32:56.173Z,15.57
2018-03-07T20:35:24.449Z,16.00
2018-03-07T20:37:52.837Z,15.77
2018-03-07T20:40:21.120Z,16.87
2018-03-07T20:42:49.424Z,18.20
2018-03-07T20:45:17.709Z,18.47
2018-03-07T20:47:45.996Z,16.73
2018-03-07T20:50:14.296Z,17.67
2018-03-07T20:52:41.816Z,18.10
2018-03-07T20:55:09.343Z,20.20
2018-03-07T20:57:36.855Z,19.80
2018-03-07T21:00:04.692Z,21.63
2018-03-07T21:02:32.218Z,23.47
2018-03-07T21:04:59.731Z,24.73
2018-03-07T21:07:27.260Z,27.07
2018-03-07T21:09:54.769Z,26.13
2018-03-07T21:12:22.300Z,24.30
2018-03-07T21:14:49.813Z,18.13
2018-03-07T21:17:17.347Z,18.07
2018-03-07T21:19:44.866Z,14.20
2018-03-07T21:22:12.376Z,13.93
2018-03-07T21:24:39.904Z,10.80
2018-03-07T21:27:07.412Z,10.97
2018-03-07T21:29:34.940Z,8.53
2018-03-07T21:32:02.467Z,9.70
2018-03-07T21:34:30.017Z,9.30
2018-03-07T21:36:57.534Z,11.60
2018-03-07T21:39:25.816Z,10.47
2018-03-07T21:41:54.121Z,10.60
2018-03-07T21:44:21.645Z,11.40
2018-03-07T21:46:49.176Z,10.53
2018-03-07T21:49:16.684Z,12.43
2018-03-07T21:51:44.220Z,13.07
2018-03-07T21:54:11.744Z,12.97
2018-03-07T21:56:40.024Z,15.13
2018-03-07T21:59:07.557Z,14.50
2018-03-07T22:01:35.072Z,16.47
2018-03-07T22:04:02.613Z,17.03
2018-03-07T22:06:30.500Z,18.03
2018-03-07T22:08:58.039Z,20.70
2018-03-07T22:11:25.548Z,20.03
2018-03-07T22:13:53.061Z,21.17
2018-03-07T22:16:20.600Z,19.93
2018-03-07T22:18:48.112Z,24.03
2018-03-07T22:21:15.788Z,25.60
2018-03-07T22:23:43.304Z,25.40
2018-03-07T22:26:11.120Z,26.40
2018-03-07T22:28:38.633Z,28.27
2018-03-07T22:31:06.157Z,28.60
2018-03-07T22:33:33.689Z,27.17
2018-03-07T22:36:01.814Z,27.47
2018-03-07T22:38:29.344Z,28.20
2018-03-07T22:40:56.865Z,30.43
2018-03-07T22:43:24.652Z,30.83
2018-03-07T22:45:52.164Z,26.67
2018-03-07T22:48:19.674Z,30.10
2018-03-07T22:50:47.210Z,32.53
2018-03-07T22:53:14.729Z,31.57
2018-03-07T22:55:42.260Z,33.27
2018-03-07T22:58:10.540Z,32.13
2018-03-07T23:00:43.800Z,33.23
2018-03-07T23:03:11.307Z,33.60
2018-03-07T23:05:38.811Z,34.67
2018-03-07T23:08:06.354Z,35.67
2018-03-07T23:10:34.636Z,35.07
2018-03-07T23:13:02.181Z,36.83
2018-03-07T23:15:29.691Z,37.47
2018-03-07T23:17:57.199Z,39.13
2018-03-07T23:20:24.733Z,37.90
2018-03-07T23:22:53.019Z,35.43
2018-03-07T23:25:21.316Z,38.00
2018-03-07T23:27:49.595Z,38.47
2018-03-07T23:30:17.147Z,38.50
2018-03-07T23:32:44.655Z,38.70
2018-03-07T23:35:12.927Z,38.13
2018-03-07T23:37:40.456Z,41.93
2018-03-07T23:40:07.973Z,40.53
2018-03-07T23:42:36.268Z,39.13
2018-03-07T23:45:04.543Z,42.17
2018-03-07T23:47:32.828Z,41.90
2018-03-07T23:50:00.812Z,42.03
2018-03-07T23:52:29.094Z,43.27
2018-03-07T23:54:56.628Z,41.67
2018-03-07T23:57:24.139Z,43.63
2018-03-07T23:59:51.677Z,40.20
